createdAt,value
2022-07-29T00:00:26.503Z,18.72
2022-07-29T00:05:40.644Z,18.49
2022-07-29T00:10:43.350Z,19.58
2022-07-29T00:15:45.793Z,20.15
2022-07-29T00:20:48.186Z,19.84
2022-07-29T00:25:50.717Z,17.93
2022-07-29T00:30:53.227Z,18.44
2022-07-29T00:35:55.832Z,19.58
2022-07-29T00:40:59.728Z,19.98
2022-07-29T00:46:02.695Z,20.26
2022-07-29T00:51:06.690Z,19.20
2022-07-29T00:56:09.107Z,17.51
2022-07-29T01:01:11.554Z,18.53
2022-07-29T01:06:15.580Z,19.69
2022-07-29T01:11:19.172Z,20.17
2022-07-29T01:16:38.173Z,19.15
2022-07-29T01:21:58.450Z,17.12
2022-07-29T01:27:32.702Z,17.74
2022-07-29T01:32:38.117Z,19.14
2022-07-29T01:37:46.268Z,19.20
2022-07-29T01:42:55.616Z,17.29
2022-07-29T01:48:13.888Z,17.81
2022-07-29T01:53:26.739Z,19.03
2022-07-29T01:58:32.292Z,19.40
2022-07-29T02:03:37.242Z,19.60
2022-07-29T02:08:41.564Z,18.60
2022-07-29T02:13:46.373Z,16.91
2022-07-29T02:18:51.489Z,17.98
2022-07-29T02:23:55.408Z,19.09
2022-07-29T02:29:01.234Z,18.80
2022-07-29T02:34:05.906Z,16.89
2022-07-29T02:39:10.798Z,17.75
2022-07-29T02:44:21.828Z,18.86
2022-07-29T02:49:30.011Z,17.46
2022-07-29T02:54:45.298Z,16.82
2022-07-29T02:59:52.666Z,18.36
2022-07-29T03:04:56.884Z,18.66
2022-07-29T03:10:02.010Z,16.84
2022-07-29T03:15:05.298Z,16.64
2022-07-29T03:20:09.290Z,18.10
2022-07-29T03:25:13.537Z,18.66
2022-07-29T03:30:21.753Z,19.19
2022-07-29T03:35:25.648Z,18.56
2022-07-29T03:40:50.590Z,16.92
2022-07-29T03:45:55.970Z,18.09
2022-07-29T03:50:58.443Z,19.05
2022-07-29T03:56:02.994Z,17.41
2022-07-29T04:01:06.166Z,16.95
2022-07-29T04:06:08.662Z,18.57
2022-07-29T04:11:11.196Z,19.01
2022-07-29T04:16:13.627Z,17.34
2022-07-29T04:21:16.236Z,17.28
2022-07-29T04:26:19.605Z,19.20
2022-07-29T04:31:25.729Z,19.25
2022-07-29T04:36:29.899Z,17.65
2022-07-29T04:41:33.690Z,17.65
2022-07-29T04:46:37.195Z,19.60
2022-07-29T04:51:40.053Z,19.40
2022-07-29T04:56:42.780Z,17.83
2022-07-29T05:01:45.206Z,18.10
2022-07-29T05:06:47.775Z,20.13
2022-07-29T05:11:50.181Z,20.17
2022-07-29T05:16:53.773Z,18.56
2022-07-29T05:21:56.178Z,19.62
2022-07-29T05:26:58.621Z,20.33
2022-07-29T05:32:01.041Z,18.82
2022-07-29T05:37:03.435Z,18.85
2022-07-29T05:42:10.673Z,20.80
2022-07-29T05:47:13.216Z,20.68
2022-07-29T05:52:16.071Z,19.34
2022-07-29T05:57:21.117Z,19.54
2022-07-29T06:02:23.556Z,21.43
2022-07-29T06:07:25.998Z,21.04
2022-07-29T06:12:28.492Z,19.90
2022-07-29T06:17:30.938Z,20.18
2022-07-29T06:22:33.336Z,22.05
2022-07-29T06:27:35.765Z,21.40
2022-07-29T06:32:42.923Z,20.50
2022-07-29T06:37:45.701Z,20.68
2022-07-29T06:42:51.235Z,21.93
2022-07-29T06:47:53.685Z,20.98
2022-07-29T06:52:56.135Z,20.54
2022-07-29T06:57:58.558Z,20.25
2022-07-29T07:03:00.926Z,20.12
2022-07-29T07:08:04.183Z,20.09
2022-07-29T07:13:06.866Z,20.14
2022-07-29T07:18:09.899Z,20.25
2022-07-29T07:23:12.382Z,20.26
2022-07-29T07:28:14.968Z,20.19
2022-07-29T07:33:17.507Z,20.10
2022-07-29T07:38:20.099Z,20.09
2022-07-29T07:43:23.437Z,20.16
2022-07-29T07:48:25.853Z,20.28
2022-07-29T07:53:30.616Z,20.36
2022-07-29T07:58:33.553Z,20.58
2022-07-29T08:03:36.252Z,20.78
2022-07-29T08:08:38.637Z,20.95
2022-07-29T08:13:41.072Z,21.14
2022-07-29T08:18:44.724Z,21.45
2022-07-29T08:23:57.646Z,21.75
2022-07-29T08:29:02.280Z,21.85
2022-07-29T08:34:05.610Z,22.04
2022-07-29T08:39:08.053Z,22.26
2022-07-29T08:44:10.637Z,22.38
2022-07-29T08:49:13.161Z,22.53
2022-07-29T08:54:19.272Z,22.48
2022-07-29T08:59:25.512Z,22.61
2022-07-29T09:04:34.149Z,22.69
2022-07-29T09:09:36.536Z,22.72
2022-07-29T09:14:39.951Z,22.86
2022-07-29T09:19:44.775Z,23.16
2022-07-29T09:24:48.475Z,23.37
2022-07-29T09:30:02.479Z,23.41
2022-07-29T09:35:23.242Z,23.63
2022-07-29T09:40:28.516Z,24.14
2022-07-29T09:45:32.190Z,24.56
2022-07-29T09:50:42.126Z,24.98
2022-07-29T09:55:52.545Z,25.21
2022-07-29T10:00:56.909Z,25.12
2022-07-29T10:06:15.172Z,24.75
2022-07-29T10:11:18.533Z,24.41
2022-07-29T10:16:20.996Z,24.39
2022-07-29T10:21:35.942Z,24.51
2022-07-29T10:26:41.799Z,24.86
2022-07-29T10:32:15.257Z,25.26
2022-07-29T10:37:35.406Z,25.28
2022-07-29T10:42:42.182Z,25.22
2022-07-29T10:47:45.944Z,25.09
2022-07-29T10:52:53.395Z,25.31
2022-07-29T10:58:21.786Z,25.60
2022-07-29T11:03:53.719Z,25.81
2022-07-29T11:09:20.192Z,26.29
2022-07-29T11:14:55.614Z,26.50
2022-07-29T11:20:30.863Z,26.75
2022-07-29T11:25:50.156Z,26.89
2022-07-29T11:30:55.963Z,26.72
2022-07-29T11:36:16.934Z,26.68
2022-07-29T11:41:26.076Z,26.64
2022-07-29T11:46:49.958Z,26.74
2022-07-29T11:51:54.299Z,27.00
2022-07-29T11:56:58.717Z,27.23
2022-07-29T12:02:33.318Z,27.30
2022-07-29T12:07:34.605Z,27.34
2022-07-29T12:12:39.552Z,26.95
2022-07-29T12:17:42.734Z,26.65
2022-07-29T12:22:45.306Z,26.42
2022-07-29T12:27:58.996Z,26.37
2022-07-29T12:33:02.680Z,26.59
2022-07-29T12:38:05.453Z,26.74
2022-07-29T12:43:13.997Z,26.68
2022-07-29T12:48:17.514Z,26.84
2022-07-29T12:53:20.128Z,27.25
2022-07-29T12:58:39.725Z,27.52
2022-07-29T13:04:00.716Z,27.51
2022-07-29T13:09:20.624Z,27.44
2022-07-29T13:14:48.922Z,27.19
2022-07-29T13:20:15.590Z,27.20
2022-07-29T13:25:34.206Z,27.18
2022-07-29T13:30:36.638Z,27.24
2022-07-29T13:35:48.372Z,27.31
2022-07-29T13:40:50.760Z,27.53
2022-07-29T13:45:53.288Z,27.48
2022-07-29T13:50:55.826Z,27.39
2022-07-29T13:55:58.298Z,27.21
2022-07-29T14:01:01.539Z,27.36
2022-07-29T14:06:03.871Z,27.53
2022-07-29T14:11:06.341Z,27.51
2022-07-29T14:16:09.008Z,27.20
2022-07-29T14:21:11.426Z,26.78
2022-07-29T14:26:15.858Z,26.35
2022-07-29T14:31:22.887Z,26.34
2022-07-29T14:36:25.439Z,26.81
2022-07-29T14:41:29.156Z,27.65
2022-07-29T14:46:31.803Z,28.60
2022-07-29T14:51:34.451Z,29.62
2022-07-29T14:56:37.715Z,30.57
2022-07-29T15:01:48.782Z,30.74
2022-07-29T15:06:52.690Z,30.50
2022-07-29T15:11:55.387Z,30.88
2022-07-29T15:16:58.179Z,31.85
2022-07-29T15:22:01.632Z,32.22
2022-07-29T15:27:04.324Z,31.95
2022-07-29T15:32:07.010Z,30.98
2022-07-29T15:37:11.640Z,30.23
2022-07-29T15:42:14.072Z,30.22
2022-07-29T15:47:20.246Z,30.99
2022-07-29T15:52:25.630Z,32.26
2022-07-29T15:57:28.710Z,33.10
2022-07-29T16:02:31.587Z,33.41
2022-07-29T16:07:34.155Z,33.45
2022-07-29T16:12:37.162Z,33.38
2022-07-29T16:17:39.568Z,33.59
2022-07-29T16:22:43.146Z,34.07
2022-07-29T16:27:45.511Z,34.42
2022-07-29T16:32:47.945Z,33.70
2022-07-29T16:37:50.278Z,31.47
2022-07-29T16:42:52.687Z,29.37
2022-07-29T16:48:00.121Z,27.73
2022-07-29T16:53:03.407Z,26.36
2022-07-29T16:58:05.891Z,25.39
2022-07-29T17:03:08.331Z,24.67
2022-07-29T17:08:10.741Z,24.23
2022-07-29T17:13:13.189Z,23.92
2022-07-29T17:18:15.609Z,23.75
2022-07-29T17:23:18.039Z,23.53
2022-07-29T17:28:20.433Z,23.23
2022-07-29T17:33:22.862Z,22.89
2022-07-29T17:38:25.377Z,22.60
2022-07-29T17:43:27.994Z,22.30
2022-07-29T17:48:30.563Z,22.06
2022-07-29T17:53:33.150Z,21.84
2022-07-29T17:58:36.222Z,21.67
2022-07-29T18:03:38.653Z,21.50
2022-07-29T18:08:41.378Z,21.33
2022-07-29T18:13:43.814Z,21.15
2022-07-29T18:18:46.427Z,20.98
2022-07-29T18:23:50.594Z,20.81
2022-07-29T18:28:53.030Z,20.62
2022-07-29T18:33:59.874Z,20.40
2022-07-29T18:39:02.703Z,20.19
2022-07-29T18:44:05.233Z,20.01
2022-07-29T18:49:08.104Z,19.80
2022-07-29T18:54:10.592Z,19.57
2022-07-29T18:59:16.836Z,19.32
2022-07-29T19:04:19.275Z,19.07
2022-07-29T19:09:21.855Z,18.85
2022-07-29T19:14:24.277Z,18.60
2022-07-29T19:19:26.930Z,18.36
2022-07-29T19:24:29.364Z,18.14
2022-07-29T19:29:32.764Z,17.92
2022-07-29T19:34:35.577Z,17.72
2022-07-29T19:39:37.977Z,17.55
2022-07-29T19:44:40.421Z,17.42
2022-07-29T19:49:42.860Z,17.30
2022-07-29T19:54:45.324Z,17.19
2022-07-29T19:59:48.201Z,17.04
2022-07-29T20:04:52.089Z,17.86
2022-07-29T20:09:55.073Z,20.04
2022-07-29T20:14:58.071Z,19.18
2022-07-29T20:20:01.098Z,18.16
2022-07-29T20:25:05.496Z,17.55
2022-07-29T20:30:08.954Z,17.12
2022-07-29T20:35:13.793Z,16.77
2022-07-29T20:40:16.789Z,17.38
2022-07-29T20:45:20.027Z,19.69
2022-07-29T20:50:24.042Z,19.50
2022-07-29T20:55:26.923Z,18.12
2022-07-29T21:00:29.707Z,17.38
2022-07-29T21:05:32.689Z,16.85
2022-07-29T21:10:35.108Z,16.42
2022-07-29T21:15:38.064Z,17.00
2022-07-29T21:20:40.665Z,19.28
2022-07-29T21:25:43.293Z,19.40
2022-07-29T21:30:45.816Z,17.91
2022-07-29T21:36:26.615Z,16.98
2022-07-29T21:42:15.188Z,17.03
2022-07-29T21:47:17.623Z,19.31
2022-07-29T21:52:20.341Z,18.37
2022-07-29T21:57:23.519Z,16.98
2022-07-29T22:02:26.019Z,17.07
2022-07-29T22:07:55.442Z,19.04
2022-07-29T22:12:52.480Z,18.31
2022-07-29T22:17:55.574Z,16.88
2022-07-29T22:22:58.183Z,16.23
2022-07-29T22:28:00.598Z,17.92
2022-07-29T22:33:03.076Z,19.17
2022-07-29T22:38:05.443Z,17.92
2022-07-29T22:43:08.090Z,16.71
2022-07-29T22:48:10.588Z,15.96
2022-07-29T22:53:13.863Z,16.38
2022-07-29T22:58:16.226Z,18.46
2022-07-29T23:03:18.769Z,18.68
2022-07-29T23:08:21.257Z,17.06
2022-07-29T23:13:23.710Z,16.01
2022-07-29T23:18:26.143Z,16.34
2022-07-29T23:23:32.345Z,18.36
2022-07-29T23:28:35.084Z,18.51
2022-07-29T23:33:37.481Z,16.86
2022-07-29T23:38:40.892Z,15.82
2022-07-29T23:43:43.494Z,16.18
2022-07-29T23:48:46.268Z,18.20
2022-07-29T23:53:53.049Z,18.28
2022-07-29T23:58:56.515Z,16.60
